createdAt,value
2018-09-10T00:00:52.000Z,27.70
2018-09-10T00:03:21.367Z,27.30
2018-09-10T00:05:49.445Z,27.60
2018-09-10T00:08:17.538Z,27.20
2018-09-10T00:10:45.805Z,27.00
2018-09-10T00:13:13.870Z,27.10
2018-09-10T00:15:41.950Z,27.30
2018-09-10T00:18:10.048Z,27.70
2018-09-10T00:20:38.133Z,28.10
2018-09-10T00:23:06.227Z,28.10
2018-09-10T00:25:34.310Z,28.20
2018-09-10T00:28:02.410Z,27.80
2018-09-10T00:30:30.499Z,28.00
2018-09-10T00:32:58.585Z,28.10
2018-09-10T00:35:26.663Z,27.80
2018-09-10T00:37:54.764Z,27.20
2018-09-10T00:40:22.874Z,28.90
2018-09-10T00:42:50.964Z,28.70
2018-09-10T00:45:19.038Z,28.70
2018-09-10T00:47:47.126Z,28.60
2018-09-10T00:50:15.214Z,28.50
2018-09-10T00:52:43.306Z,28.30
2018-09-10T00:55:11.399Z,28.40
2018-09-10T00:57:39.485Z,28.20
2018-09-10T01:00:07.566Z,28.00
2018-09-10T01:02:35.658Z,28.10
2018-09-10T01:05:03.741Z,28.20
2018-09-10T01:07:31.850Z,28.30
2018-09-10T01:09:59.936Z,28.20
2018-09-10T01:12:28.022Z,28.70
2018-09-10T01:14:56.107Z,29.00
2018-09-10T01:17:24.191Z,30.10
2018-09-10T01:19:53.142Z,29.80
2018-09-10T01:22:21.206Z,28.80
2018-09-10T01:24:49.302Z,28.70
2018-09-10T01:27:17.383Z,29.30
2018-09-10T01:29:45.468Z,29.60
2018-09-10T01:32:13.542Z,29.80
2018-09-10T01:34:46.978Z,30.20
2018-09-10T01:37:15.050Z,30.50
2018-09-10T01:39:43.151Z,29.50
2018-09-10T01:42:11.427Z,29.10
2018-09-10T01:44:39.531Z,29.30
2018-09-10T01:47:07.623Z,29.80
2018-09-10T01:49:35.698Z,30.00
2018-09-10T01:52:04.012Z,31.10
2018-09-10T01:54:32.310Z,30.10
2018-09-10T01:57:00.411Z,29.60
2018-09-10T01:59:28.511Z,29.30
2018-09-10T02:01:56.587Z,29.60
2018-09-10T02:04:24.674Z,29.50
2018-09-10T02:06:53.142Z,28.30
2018-09-10T02:09:21.258Z,28.10
2018-09-10T02:11:49.350Z,29.10
2018-09-10T02:14:17.589Z,29.00
2018-09-10T02:16:45.679Z,28.50
2018-09-10T02:19:13.821Z,28.90
2018-09-10T02:21:42.071Z,30.00
2018-09-10T02:24:10.166Z,29.90
2018-09-10T02:26:38.247Z,30.00
2018-09-10T02:29:06.351Z,30.10
2018-09-10T02:31:34.430Z,30.60
2018-09-10T02:34:02.532Z,31.50
2018-09-10T02:36:30.825Z,30.50
2018-09-10T02:38:58.915Z,30.00
2018-09-10T02:41:27.000Z,30.00
2018-09-10T02:43:55.101Z,30.00
2018-09-10T02:46:23.181Z,30.10
2018-09-10T02:48:51.271Z,30.10
2018-09-10T02:51:19.354Z,30.00
2018-09-10T02:53:47.460Z,30.00
2018-09-10T02:56:15.539Z,30.00
2018-09-10T02:58:43.647Z,30.00
2018-09-10T03:01:11.727Z,30.00
2018-09-10T03:03:39.818Z,30.40
2018-09-10T03:06:07.902Z,30.80
2018-09-10T03:08:35.996Z,30.60
2018-09-10T03:11:04.091Z,30.10
2018-09-10T03:13:32.183Z,30.20
2018-09-10T03:16:00.270Z,30.50
2018-09-10T03:18:28.354Z,30.80
2018-09-10T03:20:56.463Z,31.00
2018-09-10T03:23:24.775Z,31.00
2018-09-10T03:25:53.150Z,31.50
2018-09-10T03:28:21.243Z,31.20
2018-09-10T03:30:49.578Z,31.30
2018-09-10T03:33:17.666Z,31.20
2018-09-10T03:35:45.762Z,31.80
2018-09-10T03:38:13.874Z,32.00
2018-09-10T03:40:41.972Z,31.50
2018-09-10T03:43:10.254Z,31.80
2018-09-10T03:45:38.352Z,31.80
2018-09-10T03:48:06.422Z,32.10
2018-09-10T03:50:34.770Z,31.80
2018-09-10T03:53:02.873Z,31.90
2018-09-10T03:55:30.976Z,31.50
2018-09-10T03:57:59.062Z,31.50
2018-09-10T04:00:27.178Z,31.90
2018-09-10T04:02:55.285Z,32.50
2018-09-10T04:05:23.430Z,32.30
2018-09-10T04:07:51.519Z,32.30
2018-09-10T04:10:19.662Z,33.00
2018-09-10T04:12:48.020Z,33.00
2018-09-10T04:15:16.118Z,32.50
2018-09-10T04:17:44.194Z,31.80
2018-09-10T04:20:12.362Z,31.70
2018-09-10T04:22:41.768Z,32.10
2018-09-10T04:25:09.853Z,31.80
2018-09-10T04:27:38.334Z,31.60
2018-09-10T04:30:10.182Z,31.60
2018-09-10T04:32:38.341Z,31.60
2018-09-10T04:35:06.440Z,31.50
2018-09-10T04:37:34.526Z,32.50
2018-09-10T04:40:02.631Z,32.10
2018-09-10T04:42:30.710Z,32.80
2018-09-10T04:44:58.809Z,33.10
2018-09-10T04:47:26.906Z,32.70
2018-09-10T04:49:55.014Z,33.40
2018-09-10T04:52:23.106Z,33.20
2018-09-10T04:54:51.210Z,33.20
2018-09-10T04:57:19.296Z,33.20
2018-09-10T04:59:47.409Z,32.80
2018-09-10T05:02:15.507Z,32.60
2018-09-10T05:04:43.586Z,32.60
2018-09-10T05:07:11.738Z,32.50
2018-09-10T05:09:39.838Z,32.50
2018-09-10T05:12:08.194Z,32.20
2018-09-10T05:14:36.290Z,32.50
2018-09-10T05:17:04.374Z,32.50
2018-09-10T05:19:33.430Z,32.20
2018-09-10T05:22:01.679Z,32.80
2018-09-10T05:24:29.744Z,32.50
2018-09-10T05:26:57.854Z,32.50
2018-09-10T05:29:26.211Z,32.50
2018-09-10T05:31:54.310Z,32.90
2018-09-10T05:34:22.391Z,32.60
2018-09-10T05:36:50.690Z,33.20
2018-09-10T05:39:18.796Z,34.60
2018-09-10T05:41:46.967Z,34.30
2018-09-10T05:44:15.254Z,34.10
2018-09-10T05:46:43.350Z,34.10
2018-09-10T05:49:11.446Z,34.30
2018-09-10T05:51:39.545Z,33.60
2018-09-10T05:54:07.646Z,34.30
2018-09-10T05:56:36.581Z,34.90
2018-09-10T05:59:04.891Z,35.40
2018-09-10T06:01:33.018Z,36.00
2018-09-10T06:04:01.102Z,36.50
2018-09-10T06:06:29.190Z,36.20
2018-09-10T06:08:57.298Z,37.10
2018-09-10T06:11:25.391Z,37.70
2018-09-10T06:13:53.950Z,37.50
2018-09-10T06:16:22.246Z,36.40
2018-09-10T06:18:50.332Z,36.70
2018-09-10T06:21:18.430Z,36.60
2018-09-10T06:23:46.529Z,34.80
2018-09-10T06:26:14.638Z,35.90
2018-09-10T06:28:42.722Z,36.40
2018-09-10T06:31:10.815Z,36.00
2018-09-10T06:33:38.906Z,35.90
2018-09-10T06:36:07.002Z,35.60
2018-09-10T06:38:35.082Z,35.10
2018-09-10T06:41:03.195Z,34.60
2018-09-10T06:43:31.281Z,35.30
2018-09-10T06:45:59.388Z,36.20
2018-09-10T06:48:27.466Z,37.10
2018-09-10T06:50:55.567Z,36.20
2018-09-10T06:53:23.655Z,31.80
2018-09-10T06:55:51.754Z,36.20
2018-09-10T06:58:19.837Z,35.70
2018-09-10T07:00:47.931Z,33.90
2018-09-10T07:03:16.023Z,33.90
2018-09-10T07:05:44.106Z,32.00
2018-09-10T07:08:12.192Z,34.70
2018-09-10T07:10:40.475Z,35.50
2018-09-10T07:13:08.626Z,35.30
2018-09-10T07:15:36.638Z,31.90
2018-09-10T07:18:04.720Z,33.00
2018-09-10T07:20:32.817Z,31.70
2018-09-10T07:23:00.882Z,31.80
2018-09-10T07:25:28.963Z,32.00
2018-09-10T07:27:57.066Z,31.00
2018-09-10T07:30:25.181Z,30.60
2018-09-10T07:32:53.282Z,30.60
2018-09-10T07:35:21.371Z,30.90
2018-09-10T07:37:49.458Z,30.00
2018-09-10T07:40:17.542Z,29.50
2018-09-10T07:42:45.623Z,29.60
2018-09-10T07:45:13.713Z,30.10
2018-09-10T07:47:41.803Z,29.60
2018-09-10T07:50:09.904Z,29.30
2018-09-10T07:52:37.993Z,28.70
2018-09-10T07:55:06.079Z,29.10
2018-09-10T07:57:34.254Z,29.60
2018-09-10T08:00:02.735Z,29.20
2018-09-10T08:02:30.850Z,29.60
2018-09-10T08:04:58.927Z,29.10
2018-09-10T08:07:27.156Z,29.40
2018-09-10T08:09:55.251Z,28.90
2018-09-10T08:12:23.359Z,29.00
2018-09-10T08:14:51.462Z,30.10
2018-09-10T08:17:19.554Z,28.90
2018-09-10T08:19:47.638Z,27.30
2018-09-10T08:22:15.738Z,27.20
2018-09-10T08:24:43.826Z,28.50
2018-09-10T08:27:12.021Z,26.00
2018-09-10T08:29:40.110Z,26.40
2018-09-10T08:32:08.203Z,26.80
2018-09-10T08:34:36.431Z,25.60
2018-09-10T08:37:04.870Z,25.80
2018-09-10T08:39:32.985Z,24.30
2018-09-10T08:42:01.082Z,24.00
2018-09-10T08:44:29.543Z,26.00
2018-09-10T08:46:57.654Z,24.20
2018-09-10T08:49:25.759Z,23.70
2018-09-10T08:51:53.840Z,24.00
2018-09-10T08:54:22.011Z,23.80
2018-09-10T08:56:50.002Z,23.40
2018-09-10T08:59:18.091Z,24.00
2018-09-10T09:01:46.249Z,22.50
2018-09-10T09:04:14.266Z,23.90
2018-09-10T09:06:42.373Z,22.80
2018-09-10T09:09:10.483Z,22.60
2018-09-10T09:11:38.575Z,23.10
2018-09-10T09:14:06.654Z,22.70
2018-09-10T09:16:34.774Z,23.10
2018-09-10T09:19:02.848Z,22.80
2018-09-10T09:21:30.942Z,22.90
2018-09-10T09:23:59.046Z,22.90
2018-09-10T09:26:27.126Z,23.00
2018-09-10T09:28:55.494Z,23.00
2018-09-10T09:31:23.574Z,22.20
2018-09-10T09:33:51.672Z,21.80
2018-09-10T09:36:25.250Z,22.20
2018-09-10T09:38:58.603Z,22.40
2018-09-10T09:41:31.897Z,22.60
2018-09-10T09:44:05.526Z,22.90
2018-09-10T09:46:33.594Z,22.90
2018-09-10T09:49:01.694Z,23.30
2018-09-10T09:51:29.794Z,21.90
2018-09-10T09:53:57.895Z,23.10
2018-09-10T09:56:27.141Z,22.20
2018-09-10T09:58:55.215Z,21.50
2018-09-10T10:01:27.787Z,20.70
2018-09-10T10:03:56.892Z,21.20
2018-09-10T10:06:25.569Z,21.30
2018-09-10T10:08:53.750Z,20.50
2018-09-10T10:11:21.880Z,21.40
2018-09-10T10:13:49.910Z,21.10
2018-09-10T10:16:18.388Z,20.20
2018-09-10T10:18:47.169Z,19.90
2018-09-10T10:21:15.238Z,19.60
2018-09-10T10:23:43.330Z,19.30
2018-09-10T10:26:11.406Z,18.20
2018-09-10T10:28:45.235Z,17.50
2018-09-10T10:31:13.311Z,18.40
2018-09-10T10:33:46.362Z,18.00
2018-09-10T10:36:14.918Z,17.30
2018-09-10T10:38:45.469Z,17.50
2018-09-10T10:41:17.139Z,17.20
2018-09-10T10:43:47.285Z,18.40
2018-09-10T10:46:21.961Z,17.90
2018-09-10T10:48:52.481Z,17.90
2018-09-10T10:51:21.074Z,17.40
2018-09-10T10:53:50.177Z,17.20
2018-09-10T10:56:18.076Z,17.50
2018-09-10T10:58:53.858Z,16.90
2018-09-10T11:01:26.688Z,16.70
2018-09-10T11:03:57.935Z,16.50
2018-09-10T11:06:26.294Z,17.70
2018-09-10T11:08:54.370Z,16.70
2018-09-10T11:11:22.458Z,15.30
2018-09-10T11:13:50.734Z,15.50
2018-09-10T11:16:19.014Z,14.70
2018-09-10T11:18:47.115Z,14.80
2018-09-10T11:21:15.189Z,16.70
2018-09-10T11:23:43.278Z,14.00
2018-09-10T11:26:11.350Z,13.20
2018-09-10T11:28:39.562Z,15.00
2018-09-10T11:31:07.978Z,14.20
2018-09-10T11:33:36.076Z,13.40
2018-09-10T11:36:04.167Z,13.10
2018-09-10T11:38:32.250Z,11.40
2018-09-10T11:41:00.337Z,10.10
2018-09-10T11:43:28.429Z,9.60
2018-09-10T11:45:56.526Z,10.10
2018-09-10T11:48:24.626Z,10.50
2018-09-10T11:50:52.712Z,9.70
2018-09-10T11:53:20.795Z,7.50
2018-09-10T11:55:48.936Z,7.80
2018-09-10T11:58:16.967Z,8.30
2018-09-10T12:00:45.038Z,9.10
2018-09-10T12:03:13.131Z,7.40
2018-09-10T12:05:41.207Z,7.70
2018-09-10T12:08:09.286Z,7.30
2018-09-10T12:10:37.387Z,7.00
2018-09-10T12:13:05.459Z,6.50
2018-09-10T12:15:33.550Z,6.30
2018-09-10T12:18:01.677Z,7.60
2018-09-10T12:20:29.766Z,6.80
2018-09-10T12:22:57.853Z,4.90
2018-09-10T12:25:25.946Z,4.00
2018-09-10T12:27:54.022Z,3.50
2018-09-10T12:30:22.121Z,3.40
2018-09-10T12:32:50.200Z,4.80
2018-09-10T12:35:18.313Z,3.80
2018-09-10T12:37:46.406Z,4.50
2018-09-10T12:40:14.497Z,2.90
2018-09-10T12:42:42.750Z,1.00
2018-09-10T12:45:10.834Z,1.00
2018-09-10T12:47:38.930Z,1.00
2018-09-10T12:50:07.032Z,1.00
2018-09-10T12:52:35.103Z,1.00
2018-09-10T12:55:03.182Z,1.00
2018-09-10T12:57:31.258Z,1.00
2018-09-10T12:59:59.346Z,1.00
2018-09-10T13:02:27.423Z,1.00
2018-09-10T13:04:55.515Z,1.00
2018-09-10T13:07:23.582Z,1.00
2018-09-10T13:09:51.681Z,1.00
2018-09-10T13:12:19.757Z,1.00
2018-09-10T13:14:47.844Z,1.00
2018-09-10T13:17:15.914Z,1.00
2018-09-10T13:19:44.011Z,1.00
2018-09-10T13:22:12.119Z,1.00
2018-09-10T13:24:40.215Z,1.00
2018-09-10T13:27:08.287Z,1.00
2018-09-10T13:29:36.386Z,1.00
2018-09-10T13:32:04.458Z,1.00
2018-09-10T13:34:32.539Z,1.00
2018-09-10T13:37:00.615Z,1.00
2018-09-10T13:39:28.709Z,1.00
2018-09-10T13:41:56.782Z,1.00
2018-09-10T13:44:24.872Z,1.00
2018-09-10T13:46:52.946Z,1.00
2018-09-10T13:49:21.174Z,1.00
2018-09-10T13:51:49.258Z,1.00
2018-09-10T13:54:17.547Z,1.00
2018-09-10T13:56:45.603Z,1.00
2018-09-10T13:59:13.690Z,1.00
2018-09-10T14:01:41.809Z,1.00
2018-09-10T14:04:09.910Z,1.00
2018-09-10T14:06:37.990Z,1.00
2018-09-10T14:09:07.375Z,1.00
2018-09-10T14:11:36.102Z,1.00
2018-09-10T14:14:04.343Z,1.00
2018-09-10T14:16:32.414Z,1.00
2018-09-10T14:19:00.499Z,1.00
2018-09-10T14:21:28.589Z,1.00
2018-09-10T14:23:56.675Z,1.00
2018-09-10T14:26:24.786Z,1.00
2018-09-10T14:28:52.994Z,1.00
2018-09-10T14:31:21.091Z,1.00
2018-09-10T14:33:49.397Z,1.00
2018-09-10T14:36:17.674Z,1.00
2018-09-10T14:38:45.770Z,1.00
2018-09-10T14:41:13.851Z,1.00
2018-09-10T14:43:41.918Z,1.00
2018-09-10T14:46:10.011Z,1.00
2018-09-10T14:48:38.099Z,1.00
2018-09-10T14:51:06.181Z,1.00
2018-09-10T14:53:34.267Z,1.00
2018-09-10T14:56:02.402Z,1.00
2018-09-10T14:58:30.511Z,1.00
2018-09-10T15:00:58.589Z,1.00
2018-09-10T15:03:26.670Z,1.00
2018-09-10T15:05:54.800Z,1.00
2018-09-10T15:08:22.839Z,1.00
2018-09-10T15:10:50.926Z,1.00
2018-09-10T15:13:19.006Z,1.00
2018-09-10T15:15:47.234Z,1.00
2018-09-10T15:18:15.323Z,1.00
2018-09-10T15:20:43.387Z,1.00
2018-09-10T15:23:11.490Z,1.00
2018-09-10T15:25:39.583Z,1.00
2018-09-10T15:28:07.670Z,1.00
2018-09-10T15:30:35.743Z,1.00
2018-09-10T15:33:03.827Z,1.00
2018-09-10T15:35:31.970Z,1.00
2018-09-10T15:38:00.039Z,1.00
2018-09-10T15:40:28.136Z,1.00
2018-09-10T15:42:56.198Z,1.00
2018-09-10T15:45:24.362Z,1.00
2018-09-10T15:47:52.373Z,1.00
2018-09-10T15:50:20.442Z,1.00
2018-09-10T15:52:48.515Z,1.00
2018-09-10T15:55:16.899Z,1.00
2018-09-10T15:57:44.970Z,1.00
2018-09-10T16:00:13.141Z,1.00
2018-09-10T16:02:41.159Z,1.00
2018-09-10T16:05:09.332Z,1.00
2018-09-10T16:07:37.361Z,1.00
2018-09-10T16:10:05.654Z,1.00
2018-09-10T16:12:33.744Z,1.00
2018-09-10T16:15:01.858Z,1.00
2018-09-10T16:17:29.943Z,1.00
2018-09-10T16:19:58.295Z,1.00
2018-09-10T16:22:26.382Z,1.00
2018-09-10T16:24:54.467Z,1.00
2018-09-10T16:27:22.620Z,1.00
2018-09-10T16:29:50.654Z,1.00
2018-09-10T16:32:18.744Z,1.00
2018-09-10T16:34:46.838Z,1.00
2018-09-10T16:37:16.215Z,1.00
2018-09-10T16:39:44.305Z,1.00
2018-09-10T16:42:12.395Z,1.00
2018-09-10T16:44:40.563Z,1.00
2018-09-10T16:47:08.658Z,1.00
2018-09-10T16:49:36.775Z,1.00
2018-09-10T16:52:04.960Z,1.00
2018-09-10T16:54:33.148Z,1.00
2018-09-10T16:57:01.146Z,1.00
2018-09-10T16:59:29.229Z,1.00
2018-09-10T17:01:57.318Z,1.00
2018-09-10T17:04:25.423Z,1.00
2018-09-10T17:06:53.530Z,1.00
2018-09-10T17:09:21.650Z,1.00
2018-09-10T17:11:49.740Z,1.00
2018-09-10T17:14:18.093Z,1.00
2018-09-10T17:16:46.192Z,1.00
2018-09-10T17:19:14.279Z,1.00
2018-09-10T17:21:42.385Z,1.00
2018-09-10T17:24:10.472Z,1.00
2018-09-10T17:26:38.554Z,1.00
2018-09-10T17:29:06.629Z,1.00
2018-09-10T17:31:34.734Z,1.10
2018-09-10T17:34:02.859Z,1.50
2018-09-10T17:36:30.914Z,2.00
2018-09-10T17:38:58.990Z,2.00
2018-09-10T17:41:27.081Z,2.10
2018-09-10T17:43:55.163Z,2.10
2018-09-10T17:46:23.249Z,2.20
2018-09-10T17:48:51.569Z,2.40
2018-09-10T17:51:19.635Z,2.60
2018-09-10T17:53:47.753Z,2.70
2018-09-10T17:56:15.828Z,2.90
2018-09-10T17:58:43.922Z,3.10
2018-09-10T18:01:12.019Z,3.50
2018-09-10T18:03:40.102Z,3.50
2018-09-10T18:06:08.203Z,3.50
2018-09-10T18:08:36.605Z,3.50
2018-09-10T18:11:04.901Z,3.60
2018-09-10T18:13:32.975Z,3.60
2018-09-10T18:16:01.105Z,3.90
2018-09-10T18:18:29.201Z,4.20
2018-09-10T18:20:57.305Z,4.20
2018-09-10T18:23:25.448Z,4.40
2018-09-10T18:25:53.579Z,5.10
2018-09-10T18:28:21.691Z,4.60
2018-09-10T18:30:49.803Z,4.70
2018-09-10T18:33:18.102Z,4.80
2018-09-10T18:35:46.194Z,4.90
2018-09-10T18:38:14.274Z,5.10
2018-09-10T18:40:42.360Z,5.10
2018-09-10T18:43:10.458Z,5.30
2018-09-10T18:45:38.570Z,5.30
2018-09-10T18:48:06.729Z,5.50
2018-09-10T18:50:34.814Z,5.60
2018-09-10T18:53:02.915Z,5.70
2018-09-10T18:55:31.002Z,5.60
2018-09-10T18:57:59.171Z,6.00
2018-09-10T19:00:27.270Z,6.20
2018-09-10T19:02:55.531Z,6.40
2018-09-10T19:05:23.801Z,6.60
2018-09-10T19:07:51.883Z,6.80
2018-09-10T19:10:19.966Z,6.80
2018-09-10T19:12:48.059Z,6.90
2018-09-10T19:15:16.139Z,7.10
2018-09-10T19:17:44.235Z,7.40
2018-09-10T19:20:12.547Z,7.80
2018-09-10T19:22:40.712Z,8.10
2018-09-10T19:25:08.986Z,8.40
2018-09-10T19:27:37.116Z,8.60
2018-09-10T19:30:05.645Z,8.80
2018-09-10T19:32:33.729Z,9.00
2018-09-10T19:35:01.808Z,9.10
2018-09-10T19:37:29.919Z,9.20
2018-09-10T19:39:57.966Z,9.40
2018-09-10T19:42:26.060Z,9.60
2018-09-10T19:44:54.145Z,9.60
2018-09-10T19:47:22.231Z,9.80
2018-09-10T19:49:50.318Z,10.10
2018-09-10T19:52:18.470Z,10.10
2018-09-10T19:54:46.506Z,10.10
2018-09-10T19:57:14.627Z,10.10
2018-09-10T19:59:42.715Z,11.30
2018-09-10T20:02:10.804Z,11.50
2018-09-10T20:04:38.897Z,10.90
2018-09-10T20:07:06.992Z,10.80
2018-09-10T20:09:35.156Z,11.00
2018-09-10T20:12:03.194Z,10.90
2018-09-10T20:14:31.274Z,10.90
2018-09-10T20:16:59.398Z,11.00
2018-09-10T20:19:27.485Z,11.20
2018-09-10T20:21:55.642Z,11.30
2018-09-10T20:24:23.675Z,11.50
2018-09-10T20:26:51.782Z,11.60
2018-09-10T20:29:19.862Z,11.90
2018-09-10T20:31:47.978Z,12.00
2018-09-10T20:34:16.063Z,12.10
2018-09-10T20:36:44.169Z,12.40
2018-09-10T20:39:13.383Z,12.70
2018-09-10T20:41:41.476Z,12.70
2018-09-10T20:44:10.045Z,12.80
2018-09-10T20:46:38.410Z,12.80
2018-09-10T20:49:06.502Z,13.40
2018-09-10T20:51:34.596Z,13.30
2018-09-10T20:54:02.680Z,13.50
2018-09-10T20:56:30.771Z,14.70
2018-09-10T20:58:58.886Z,15.10
2018-09-10T21:01:26.967Z,15.40
2018-09-10T21:03:55.058Z,14.20
2018-09-10T21:06:23.150Z,14.20
2018-09-10T21:08:51.238Z,14.10
2018-09-10T21:11:19.326Z,14.00
2018-09-10T21:13:47.438Z,14.10
2018-09-10T21:16:16.468Z,14.10
2018-09-10T21:18:44.554Z,14.00
2018-09-10T21:21:12.649Z,14.60
2018-09-10T21:23:40.738Z,14.50
2018-09-10T21:26:08.813Z,14.20
2018-09-10T21:28:36.912Z,14.80
2018-09-10T21:31:05.166Z,14.30
2018-09-10T21:33:33.286Z,14.20
2018-09-10T21:36:01.358Z,14.50
2018-09-10T21:38:29.453Z,14.80
2018-09-10T21:40:57.538Z,14.80
2018-09-10T21:43:25.655Z,15.30
2018-09-10T21:45:53.742Z,15.30
2018-09-10T21:48:21.862Z,15.50
2018-09-10T21:50:49.948Z,15.50
2018-09-10T21:53:18.048Z,15.70
2018-09-10T21:55:46.126Z,15.90
2018-09-10T21:58:14.258Z,16.20
2018-09-10T22:00:47.690Z,16.20
2018-09-10T22:03:15.790Z,16.20
2018-09-10T22:05:43.878Z,16.40
2018-09-10T22:08:11.986Z,16.50
2018-09-10T22:10:40.078Z,16.80
2018-09-10T22:13:08.247Z,16.80
2018-09-10T22:15:36.360Z,17.20
2018-09-10T22:18:04.449Z,17.70
2018-09-10T22:20:32.550Z,18.40
2018-09-10T22:23:00.658Z,18.50
2018-09-10T22:25:28.750Z,18.50
2018-09-10T22:27:56.838Z,18.50
2018-09-10T22:30:24.925Z,18.10
2018-09-10T22:32:53.021Z,18.30
2018-09-10T22:35:21.110Z,18.90
2018-09-10T22:37:49.214Z,19.00
2018-09-10T22:40:17.328Z,18.70
2018-09-10T22:42:45.423Z,19.20
2018-09-10T22:45:13.530Z,19.20
2018-09-10T22:47:41.653Z,19.20
2018-09-10T22:50:09.739Z,19.20
2018-09-10T22:52:37.856Z,19.40
2018-09-10T22:55:06.330Z,19.30
2018-09-10T22:57:34.551Z,18.70
2018-09-10T23:00:02.645Z,19.30
2018-09-10T23:02:30.738Z,19.30
2018-09-10T23:04:58.950Z,19.30
2018-09-10T23:07:27.038Z,19.40
2018-09-10T23:09:55.162Z,19.50
2018-09-10T23:12:23.226Z,19.70
2018-09-10T23:14:51.314Z,20.00
2018-09-10T23:17:19.399Z,19.90
2018-09-10T23:19:47.810Z,20.20
2018-09-10T23:22:15.898Z,20.30
2018-09-10T23:24:44.159Z,20.20
2018-09-10T23:27:12.238Z,20.20
2018-09-10T23:29:40.353Z,20.10
2018-09-10T23:32:08.442Z,20.00
2018-09-10T23:34:36.557Z,20.00
2018-09-10T23:37:04.811Z,20.10
2018-09-10T23:39:32.918Z,19.60
2018-09-10T23:42:01.009Z,19.80
2018-09-10T23:44:29.113Z,19.60
2018-09-10T23:46:57.193Z,19.50
2018-09-10T23:49:25.289Z,19.00
2018-09-10T23:51:53.370Z,19.00
2018-09-10T23:54:21.484Z,19.00
2018-09-10T23:56:49.555Z,19.50
2018-09-10T23:59:17.682Z,19.70
